createdAt,value
2018-05-16T00:00:03.256Z,12.72
2018-05-16T00:01:03.152Z,12.72
2018-05-16T00:02:03.063Z,12.60
2018-05-16T00:03:02.958Z,12.67
2018-05-16T00:04:02.855Z,12.58
2018-05-16T00:05:02.763Z,12.61
2018-05-16T00:06:02.659Z,12.62
2018-05-16T00:07:02.571Z,12.60
2018-05-16T00:08:02.468Z,12.58
2018-05-16T00:09:02.364Z,12.70
2018-05-16T00:10:02.271Z,12.58
2018-05-16T00:11:02.169Z,12.57
2018-05-16T00:12:02.066Z,12.62
2018-05-16T00:13:02.003Z,12.62
2018-05-16T00:14:01.872Z,12.73
2018-05-16T00:15:01.780Z,12.62
2018-05-16T00:16:01.677Z,12.62
2018-05-16T00:17:01.575Z,12.78
2018-05-16T00:18:01.785Z,12.75
2018-05-16T00:19:01.380Z,12.82
2018-05-16T00:20:01.279Z,12.82
2018-05-16T00:21:01.186Z,12.82
2018-05-16T00:22:01.084Z,12.83
2018-05-16T00:23:00.980Z,12.83
2018-05-16T00:24:00.890Z,12.79
2018-05-16T00:25:00.785Z,12.82
2018-05-16T00:26:00.694Z,12.85
2018-05-16T00:27:00.591Z,12.85
2018-05-16T00:28:00.487Z,12.86
2018-05-16T00:29:00.397Z,12.85
2018-05-16T00:30:00.294Z,12.91
2018-05-16T00:31:00.190Z,12.90
2018-05-16T00:32:00.098Z,12.90
2018-05-16T00:32:59.997Z,12.83
2018-05-16T00:33:59.905Z,12.85
2018-05-16T00:34:59.802Z,12.87
2018-05-16T00:35:59.699Z,12.78
2018-05-16T00:36:59.607Z,12.90
2018-05-16T00:37:59.503Z,12.90
2018-05-16T00:38:59.404Z,12.78
2018-05-16T00:39:59.310Z,12.79
2018-05-16T00:40:59.209Z,12.79
2018-05-16T00:41:59.117Z,12.87
2018-05-16T00:42:59.013Z,12.82
2018-05-16T00:43:58.910Z,12.79
2018-05-16T00:44:58.819Z,12.79
2018-05-16T00:45:58.715Z,12.79
2018-05-16T00:46:58.613Z,12.83
2018-05-16T00:47:58.524Z,12.79
2018-05-16T00:48:58.417Z,12.76
2018-05-16T00:49:58.328Z,12.79
2018-05-16T00:50:58.248Z,12.76
2018-05-16T00:51:58.122Z,12.85
2018-05-16T00:52:58.029Z,12.79
2018-05-16T00:53:57.926Z,12.93
2018-05-16T00:54:57.824Z,12.93
2018-05-16T00:55:57.725Z,12.85
2018-05-16T00:56:57.630Z,12.83
2018-05-16T00:57:57.855Z,12.90
2018-05-16T00:58:57.434Z,12.86
2018-05-16T00:59:57.330Z,12.87
2018-05-16T01:00:57.241Z,12.98
2018-05-16T01:01:57.138Z,12.91
2018-05-16T01:02:57.048Z,12.97
2018-05-16T01:03:56.942Z,12.94
2018-05-16T01:04:56.840Z,12.94
2018-05-16T01:05:56.749Z,12.94
2018-05-16T01:06:56.645Z,12.95
2018-05-16T01:07:56.542Z,12.94
2018-05-16T01:08:56.451Z,13.00
2018-05-16T01:09:56.348Z,13.01
2018-05-16T01:10:56.246Z,13.01
2018-05-16T01:11:56.156Z,12.98
2018-05-16T01:12:56.051Z,13.03
2018-05-16T01:13:55.959Z,12.97
2018-05-16T01:14:55.856Z,12.94
2018-05-16T01:15:55.753Z,12.91
2018-05-16T01:16:55.663Z,12.90
2018-05-16T01:17:55.560Z,12.95
2018-05-16T01:18:55.481Z,12.94
2018-05-16T01:19:55.365Z,12.97
2018-05-16T01:20:55.262Z,12.94
2018-05-16T01:21:55.172Z,12.97
2018-05-16T01:22:55.073Z,12.94
2018-05-16T01:23:54.970Z,12.90
2018-05-16T01:24:54.871Z,12.91
2018-05-16T01:25:54.769Z,12.95
2018-05-16T01:26:54.684Z,12.86
2018-05-16T01:27:54.576Z,12.82
2018-05-16T01:28:54.473Z,12.90
2018-05-16T01:29:54.381Z,12.78
2018-05-16T01:30:54.278Z,12.83
2018-05-16T01:31:54.176Z,12.80
2018-05-16T01:32:54.087Z,12.82
2018-05-16T01:33:53.981Z,12.82
2018-05-16T01:34:53.889Z,12.78
2018-05-16T01:35:53.786Z,12.85
2018-05-16T01:36:53.683Z,12.93
2018-05-16T01:37:53.593Z,12.94
2018-05-16T01:38:53.490Z,12.94
2018-05-16T01:39:53.417Z,12.87
2018-05-16T01:40:53.301Z,12.93
2018-05-16T01:41:53.193Z,12.90
2018-05-16T01:42:53.102Z,12.90
2018-05-16T01:43:52.998Z,12.93
2018-05-16T01:44:52.898Z,12.93
2018-05-16T01:45:52.803Z,12.95
2018-05-16T01:46:52.699Z,12.91
2018-05-16T01:47:52.610Z,12.87
2018-05-16T01:48:52.507Z,12.91
2018-05-16T01:49:52.404Z,12.93
2018-05-16T01:50:52.311Z,12.91
2018-05-16T01:51:52.208Z,12.93
2018-05-16T01:52:52.106Z,12.90
2018-05-16T01:53:52.016Z,12.93
2018-05-16T01:54:51.916Z,12.94
2018-05-16T01:55:51.821Z,12.95
2018-05-16T01:56:51.731Z,12.85
2018-05-16T01:57:51.619Z,12.91
2018-05-16T01:58:51.523Z,12.90
2018-05-16T01:59:51.420Z,12.98
2018-05-16T02:00:51.328Z,13.01
2018-05-16T02:01:51.225Z,12.98
2018-05-16T02:02:51.126Z,13.04
2018-05-16T02:03:51.031Z,13.08
2018-05-16T02:04:50.929Z,13.13
2018-05-16T02:05:50.826Z,13.13
2018-05-16T02:06:50.737Z,13.13
2018-05-16T02:07:50.630Z,13.09
2018-05-16T02:08:50.540Z,13.05
2018-05-16T02:09:50.437Z,13.15
2018-05-16T02:10:50.333Z,13.00
2018-05-16T02:11:50.256Z,13.00
2018-05-16T02:12:50.138Z,12.95
2018-05-16T02:13:50.050Z,12.97
2018-05-16T02:14:49.948Z,13.00
2018-05-16T02:15:49.850Z,12.98
2018-05-16T02:16:49.750Z,13.03
2018-05-16T02:17:49.947Z,13.08
2018-05-16T02:18:49.545Z,13.04
2018-05-16T02:19:49.457Z,13.04
2018-05-16T02:20:49.351Z,13.12
2018-05-16T02:21:49.260Z,13.12
2018-05-16T02:22:49.155Z,13.05
2018-05-16T02:23:49.052Z,13.08
2018-05-16T02:24:48.962Z,13.03
2018-05-16T02:25:48.859Z,13.01
2018-05-16T02:26:48.767Z,13.08
2018-05-16T02:27:48.664Z,13.05
2018-05-16T02:28:48.561Z,13.03
2018-05-16T02:29:48.470Z,13.00
2018-05-16T02:30:48.368Z,12.95
2018-05-16T02:31:48.265Z,13.00
2018-05-16T02:32:48.173Z,13.00
2018-05-16T02:33:48.069Z,13.05
2018-05-16T02:34:47.980Z,12.98
2018-05-16T02:35:47.877Z,13.11
2018-05-16T02:36:47.773Z,13.11
2018-05-16T02:37:47.686Z,13.01
2018-05-16T02:38:47.578Z,13.11
2018-05-16T02:39:47.488Z,12.98
2018-05-16T02:40:47.384Z,13.03
2018-05-16T02:41:47.282Z,12.97
2018-05-16T02:42:47.189Z,12.95
2018-05-16T02:43:47.086Z,13.03
2018-05-16T02:44:46.996Z,12.97
2018-05-16T02:45:46.893Z,12.91
2018-05-16T02:46:46.790Z,12.86
2018-05-16T02:47:46.698Z,12.86
2018-05-16T02:48:46.595Z,12.95
2018-05-16T02:49:46.506Z,12.94
2018-05-16T02:50:46.402Z,12.86
2018-05-16T02:51:46.298Z,12.83
2018-05-16T02:52:46.207Z,12.82
2018-05-16T02:53:46.103Z,12.86
2018-05-16T02:54:46.001Z,12.80
2018-05-16T02:55:45.910Z,12.86
2018-05-16T02:56:45.806Z,12.83
2018-05-16T02:57:45.715Z,12.87
2018-05-16T02:58:45.612Z,12.90
2018-05-16T02:59:45.509Z,12.93
2018-05-16T03:00:45.418Z,12.94
2018-05-16T03:01:45.314Z,12.93
2018-05-16T03:02:45.224Z,12.93
2018-05-16T03:03:45.133Z,12.87
2018-05-16T03:04:45.017Z,12.94
2018-05-16T03:05:44.926Z,12.94
2018-05-16T03:06:44.826Z,12.94
2018-05-16T03:07:44.722Z,12.94
2018-05-16T03:08:44.633Z,12.93
2018-05-16T03:09:44.525Z,12.97
2018-05-16T03:10:44.435Z,12.93
2018-05-16T03:11:44.332Z,12.97
2018-05-16T03:12:44.235Z,12.86
2018-05-16T03:13:44.137Z,12.91
2018-05-16T03:14:44.033Z,12.94
2018-05-16T03:15:43.946Z,12.93
2018-05-16T03:16:43.840Z,12.93
2018-05-16T03:17:43.737Z,12.95
2018-05-16T03:18:43.648Z,12.93
2018-05-16T03:19:43.541Z,12.95
2018-05-16T03:20:43.461Z,12.98
2018-05-16T03:21:43.349Z,12.97
2018-05-16T03:22:43.245Z,12.95
2018-05-16T03:23:43.154Z,12.95
2018-05-16T03:24:43.049Z,12.95
2018-05-16T03:25:42.953Z,12.93
2018-05-16T03:26:42.857Z,12.95
2018-05-16T03:27:42.753Z,12.94
2018-05-16T03:28:42.661Z,12.94
2018-05-16T03:29:42.559Z,13.04
2018-05-16T03:30:42.456Z,12.98
2018-05-16T03:31:42.365Z,13.04
2018-05-16T03:32:42.262Z,13.01
2018-05-16T03:33:42.173Z,12.98
2018-05-16T03:34:42.068Z,13.04
2018-05-16T03:35:41.964Z,13.04
2018-05-16T03:36:41.874Z,13.03
2018-05-16T03:37:41.771Z,13.08
2018-05-16T03:38:41.668Z,13.08
2018-05-16T03:39:41.575Z,13.11
2018-05-16T03:40:41.472Z,13.08
2018-05-16T03:41:41.383Z,13.08
2018-05-16T03:42:41.279Z,13.13
2018-05-16T03:43:41.175Z,13.13
2018-05-16T03:44:41.083Z,13.13
2018-05-16T03:45:40.998Z,13.20
2018-05-16T03:46:40.892Z,13.25
2018-05-16T03:47:40.788Z,13.20
2018-05-16T03:48:40.695Z,13.16
2018-05-16T03:49:40.593Z,13.22
2018-05-16T03:50:40.490Z,13.22
2018-05-16T03:51:40.398Z,13.25
2018-05-16T03:52:40.296Z,13.31
2018-05-16T03:53:40.192Z,13.28
2018-05-16T03:54:40.100Z,13.12
2018-05-16T03:55:39.997Z,13.25
2018-05-16T03:56:39.907Z,13.22
2018-05-16T03:57:39.804Z,13.28
2018-05-16T03:58:39.701Z,13.27
2018-05-16T03:59:39.609Z,13.38
2018-05-16T04:00:39.506Z,13.38
2018-05-16T04:01:39.417Z,13.35
2018-05-16T04:02:39.316Z,13.38
2018-05-16T04:03:39.209Z,13.37
2018-05-16T04:04:39.117Z,13.39
2018-05-16T04:05:39.014Z,13.42
2018-05-16T04:06:38.924Z,13.38
2018-05-16T04:07:38.821Z,13.37
2018-05-16T04:08:38.730Z,13.42
2018-05-16T04:09:38.627Z,13.54
2018-05-16T04:10:38.523Z,13.50
2018-05-16T04:11:38.433Z,13.54
2018-05-16T04:12:38.330Z,13.57
2018-05-16T04:13:38.247Z,13.57
2018-05-16T04:14:38.134Z,13.59
2018-05-16T04:15:38.033Z,13.60
2018-05-16T04:16:37.944Z,13.47
2018-05-16T04:17:38.089Z,13.53
2018-05-16T04:18:37.747Z,13.54
2018-05-16T04:19:37.643Z,13.53
2018-05-16T04:20:37.554Z,13.56
2018-05-16T04:21:37.450Z,13.50
2018-05-16T04:22:37.358Z,13.47
2018-05-16T04:23:37.255Z,13.52
2018-05-16T04:24:37.152Z,13.52
2018-05-16T04:25:37.062Z,13.47
2018-05-16T04:26:36.958Z,13.49
2018-05-16T04:27:36.879Z,13.47
2018-05-16T04:28:36.763Z,13.54
2018-05-16T04:29:36.675Z,13.70
2018-05-16T04:30:36.570Z,13.72
2018-05-16T04:31:36.478Z,13.75
2018-05-16T04:32:36.451Z,13.70
2018-05-16T04:33:36.273Z,13.68
2018-05-16T04:34:36.185Z,13.77
2018-05-16T04:35:36.084Z,13.92
2018-05-16T04:36:35.987Z,13.87
2018-05-16T04:37:35.884Z,13.87
2018-05-16T04:38:35.793Z,13.89
2018-05-16T04:39:35.694Z,13.90
2018-05-16T04:40:35.599Z,13.95
2018-05-16T04:41:35.495Z,13.99
2018-05-16T04:42:35.406Z,14.15
2018-05-16T04:43:35.308Z,14.15
2018-05-16T04:44:35.210Z,14.23
2018-05-16T04:45:35.107Z,14.36
2018-05-16T04:46:35.019Z,14.36
2018-05-16T04:47:34.912Z,14.43
2018-05-16T04:48:34.822Z,14.36
2018-05-16T04:49:34.719Z,14.44
2018-05-16T04:50:34.616Z,14.47
2018-05-16T04:51:34.534Z,14.51
2018-05-16T04:52:34.423Z,14.43
2018-05-16T04:53:34.330Z,14.36
2018-05-16T04:54:34.230Z,14.32
2018-05-16T04:55:34.137Z,14.43
2018-05-16T04:56:34.047Z,14.44
2018-05-16T04:57:33.942Z,14.45
2018-05-16T04:58:33.840Z,14.48
2018-05-16T04:59:33.751Z,14.62
2018-05-16T05:00:33.656Z,14.60
2018-05-16T05:01:33.553Z,14.58
2018-05-16T05:02:33.463Z,14.58
2018-05-16T05:03:33.361Z,14.59
2018-05-16T05:04:33.268Z,14.59
2018-05-16T05:05:33.165Z,14.54
2018-05-16T05:06:33.076Z,14.55
2018-05-16T05:07:32.976Z,14.45
2018-05-16T05:08:32.881Z,14.53
2018-05-16T05:09:32.779Z,14.62
2018-05-16T05:10:32.687Z,14.79
2018-05-16T05:11:32.596Z,14.69
2018-05-16T05:12:32.506Z,14.63
2018-05-16T05:13:32.403Z,14.69
2018-05-16T05:14:32.299Z,14.72
2018-05-16T05:15:32.207Z,14.78
2018-05-16T05:16:32.105Z,14.59
2018-05-16T05:17:32.015Z,14.58
2018-05-16T05:18:31.974Z,14.60
2018-05-16T05:19:31.819Z,14.66
2018-05-16T05:20:31.731Z,14.88
2018-05-16T05:21:31.626Z,14.86
2018-05-16T05:22:31.784Z,15.17
2018-05-16T05:23:31.431Z,15.06
2018-05-16T05:24:31.340Z,15.19
2018-05-16T05:25:31.239Z,15.21
2018-05-16T05:26:31.146Z,15.28
2018-05-16T05:27:31.044Z,15.27
2018-05-16T05:28:30.953Z,15.17
2018-05-16T05:29:30.861Z,15.33
2018-05-16T05:30:30.758Z,15.43
2018-05-16T05:31:30.668Z,15.37
2018-05-16T05:32:30.565Z,15.37
2018-05-16T05:33:30.476Z,15.42
2018-05-16T05:34:30.385Z,15.49
2018-05-16T05:35:30.280Z,15.61
2018-05-16T05:36:30.188Z,15.64
2018-05-16T05:37:30.097Z,15.67
2018-05-16T05:38:29.995Z,15.61
2018-05-16T05:39:29.903Z,15.62
2018-05-16T05:40:29.804Z,15.55
2018-05-16T05:41:29.709Z,15.27
2018-05-16T05:42:29.618Z,15.21
2018-05-16T05:43:29.610Z,15.25
2018-05-16T05:44:29.424Z,15.27
2018-05-16T05:45:29.333Z,15.43
2018-05-16T05:46:29.231Z,15.40
2018-05-16T05:47:29.140Z,15.86
2018-05-16T05:48:29.038Z,15.84
2018-05-16T05:49:28.946Z,15.70
2018-05-16T05:50:28.855Z,15.75
2018-05-16T05:51:28.752Z,15.84
2018-05-16T05:52:28.661Z,15.76
2018-05-16T05:53:28.570Z,15.75
2018-05-16T05:54:28.467Z,15.75
2018-05-16T05:55:28.376Z,15.49
2018-05-16T05:56:28.286Z,15.40
2018-05-16T05:57:28.182Z,15.43
2018-05-16T05:58:28.090Z,15.55
2018-05-16T05:59:28.000Z,15.57
2018-05-16T06:00:27.896Z,15.57
2018-05-16T06:01:27.805Z,15.55
2018-05-16T06:02:27.963Z,15.67
2018-05-16T06:03:27.614Z,15.90
2018-05-16T06:04:27.519Z,16.20
2018-05-16T06:05:27.493Z,16.65
2018-05-16T06:06:27.326Z,17.33
2018-05-16T06:07:27.235Z,17.27
2018-05-16T06:08:27.144Z,17.70
2018-05-16T06:09:27.042Z,18.08
2018-05-16T06:10:26.950Z,18.83
2018-05-16T06:11:26.859Z,18.83
2018-05-16T06:12:26.757Z,19.34
2018-05-16T06:13:26.665Z,18.74
2018-05-16T06:14:26.577Z,18.35
2018-05-16T06:15:26.484Z,19.08
2018-05-16T06:16:26.382Z,19.45
2018-05-16T06:17:26.290Z,19.63
2018-05-16T06:18:26.199Z,19.45
2018-05-16T06:19:26.116Z,19.52
2018-05-16T06:20:26.017Z,19.04
2018-05-16T06:21:25.926Z,19.11
2018-05-16T06:22:26.086Z,19.29
2018-05-16T06:23:25.745Z,18.88
2018-05-16T06:24:25.651Z,19.29
2018-05-16T06:25:25.551Z,19.71
2018-05-16T06:26:25.460Z,19.48
2018-05-16T06:27:25.468Z,19.31
2018-05-16T06:28:25.282Z,19.69
2018-05-16T06:29:25.187Z,20.25
2018-05-16T06:30:25.097Z,20.56
2018-05-16T06:31:25.005Z,20.07
2018-05-16T06:32:24.914Z,19.91
2018-05-16T06:33:24.823Z,20.04
2018-05-16T06:34:24.734Z,20.28
2018-05-16T06:35:24.642Z,20.03
2018-05-16T06:36:24.556Z,20.14
2018-05-16T06:37:24.460Z,19.82
2018-05-16T06:38:24.370Z,19.84
2018-05-16T06:39:24.279Z,19.40
2018-05-16T06:40:24.191Z,18.93
2018-05-16T06:41:24.096Z,18.63
2018-05-16T06:42:24.009Z,18.28
2018-05-16T06:43:23.915Z,17.97
2018-05-16T06:44:23.829Z,17.52
2018-05-16T06:45:23.735Z,17.44
2018-05-16T06:46:23.644Z,17.29
2018-05-16T06:47:23.552Z,17.30
2018-05-16T06:48:23.462Z,17.33
2018-05-16T06:49:23.384Z,17.41
2018-05-16T06:50:23.280Z,17.44
2018-05-16T06:51:23.189Z,17.42
2018-05-16T06:52:23.098Z,17.64
2018-05-16T06:53:23.007Z,17.74
2018-05-16T06:54:22.917Z,17.46
2018-05-16T06:55:22.825Z,17.56
2018-05-16T06:56:22.771Z,17.38
2018-05-16T06:57:22.947Z,17.45
2018-05-16T06:58:22.554Z,17.64
2018-05-16T06:59:22.469Z,17.60
2018-05-16T07:00:22.372Z,17.85
2018-05-16T07:01:22.281Z,17.79
2018-05-16T07:02:22.191Z,17.74
2018-05-16T07:03:22.099Z,17.89
2018-05-16T07:04:22.010Z,17.98
2018-05-16T07:05:21.917Z,18.22
2018-05-16T07:06:21.828Z,18.49
2018-05-16T07:07:21.736Z,18.38
2018-05-16T07:08:21.633Z,18.41
2018-05-16T07:09:21.543Z,18.52
2018-05-16T07:10:21.453Z,18.63
2018-05-16T07:11:21.362Z,18.60
2018-05-16T07:12:21.270Z,18.92
2018-05-16T07:13:21.179Z,20.07
2018-05-16T07:14:21.088Z,20.36
2018-05-16T07:15:20.998Z,20.78
2018-05-16T07:16:20.906Z,20.75
2018-05-16T07:17:21.066Z,21.83
2018-05-16T07:18:20.724Z,22.04
2018-05-16T07:19:20.634Z,22.53
2018-05-16T07:20:20.543Z,22.70
2018-05-16T07:21:20.457Z,22.25
2018-05-16T07:22:20.361Z,21.45
2018-05-16T07:23:20.271Z,21.58
2018-05-16T07:24:20.179Z,21.88
2018-05-16T07:25:20.090Z,22.91
2018-05-16T07:26:19.998Z,23.56
2018-05-16T07:27:19.908Z,23.25
2018-05-16T07:28:19.830Z,22.81
2018-05-16T07:29:19.738Z,22.69
2018-05-16T07:30:19.655Z,22.53
2018-05-16T07:31:19.557Z,22.54
2018-05-16T07:32:19.482Z,22.53
2018-05-16T07:33:19.388Z,22.18
2018-05-16T07:34:19.298Z,22.11
2018-05-16T07:35:19.207Z,21.99
2018-05-16T07:36:19.115Z,22.81
2018-05-16T07:37:19.026Z,23.02
2018-05-16T07:38:18.949Z,23.55
2018-05-16T07:39:18.855Z,23.62
2018-05-16T07:40:18.765Z,24.02
2018-05-16T07:41:18.678Z,23.68
2018-05-16T07:42:18.595Z,23.76
2018-05-16T07:43:18.506Z,24.17
2018-05-16T07:44:18.426Z,24.61
2018-05-16T07:45:18.334Z,24.89
2018-05-16T07:46:18.251Z,24.84
2018-05-16T07:47:18.153Z,24.88
2018-05-16T07:48:18.074Z,25.18
2018-05-16T07:49:17.984Z,25.50
2018-05-16T07:50:17.894Z,25.11
2018-05-16T07:51:17.874Z,24.99
2018-05-16T07:52:17.726Z,24.88
2018-05-16T07:53:17.635Z,25.38
2018-05-16T07:54:17.555Z,25.60
2018-05-16T07:55:17.466Z,26.13
2018-05-16T07:56:17.375Z,26.13
2018-05-16T07:57:17.295Z,25.72
2018-05-16T07:58:17.204Z,23.99
2018-05-16T07:59:17.126Z,23.41
2018-05-16T08:00:17.029Z,22.69
2018-05-16T08:01:16.945Z,22.44
2018-05-16T08:02:16.854Z,21.91
2018-05-16T08:03:16.830Z,21.57
2018-05-16T08:04:16.686Z,21.50
2018-05-16T08:05:16.594Z,21.45
2018-05-16T08:06:16.515Z,21.66
2018-05-16T08:07:16.427Z,21.80
2018-05-16T08:08:16.347Z,21.88
2018-05-16T08:09:16.243Z,21.79
2018-05-16T08:10:16.165Z,21.45
2018-05-16T08:11:16.074Z,21.67
2018-05-16T08:12:16.054Z,21.83
2018-05-16T08:13:15.906Z,21.80
2018-05-16T08:14:15.804Z,21.92
2018-05-16T08:15:15.724Z,21.95
2018-05-16T08:16:15.632Z,22.17
2018-05-16T08:17:15.543Z,22.15
2018-05-16T08:18:15.450Z,22.45
2018-05-16T08:19:15.370Z,22.47
2018-05-16T08:20:15.283Z,22.53
2018-05-16T08:21:15.191Z,22.29
2018-05-16T08:22:15.100Z,22.41
2018-05-16T08:23:15.011Z,22.51
2018-05-16T08:24:14.920Z,22.35
2018-05-16T08:25:14.841Z,22.30
2018-05-16T08:26:14.749Z,22.29
2018-05-16T08:27:14.658Z,22.23
2018-05-16T08:28:14.567Z,21.92
2018-05-16T08:29:14.477Z,21.48
2018-05-16T08:30:14.386Z,21.18
2018-05-16T08:31:14.404Z,21.05
2018-05-16T08:32:14.218Z,21.12
2018-05-16T08:33:14.126Z,21.24
2018-05-16T08:34:14.036Z,21.09
2018-05-16T08:35:13.946Z,21.32
2018-05-16T08:36:13.854Z,21.45
2018-05-16T08:37:13.766Z,21.48
2018-05-16T08:38:13.684Z,21.46
2018-05-16T08:39:13.595Z,21.61
2018-05-16T08:40:13.504Z,21.77
2018-05-16T08:41:13.413Z,21.93
2018-05-16T08:42:13.322Z,22.98
2018-05-16T08:43:13.241Z,23.09
2018-05-16T08:44:13.139Z,23.20
2018-05-16T08:45:13.049Z,22.88
2018-05-16T08:46:12.960Z,22.70
2018-05-16T08:47:12.879Z,22.88
2018-05-16T08:48:12.789Z,23.00
2018-05-16T08:49:12.700Z,23.31
2018-05-16T08:50:12.608Z,23.47
2018-05-16T08:51:12.516Z,23.93
2018-05-16T08:52:12.428Z,24.29
2018-05-16T08:53:12.335Z,23.78
2018-05-16T08:54:12.258Z,24.16
2018-05-16T08:55:12.166Z,23.95
2018-05-16T08:56:12.075Z,24.39
2018-05-16T08:57:11.985Z,24.38
2018-05-16T08:58:11.893Z,24.73
2018-05-16T08:59:11.818Z,24.48
2018-05-16T09:00:11.725Z,24.86
2018-05-16T09:01:11.701Z,24.80
2018-05-16T09:02:11.545Z,24.99
2018-05-16T09:03:11.465Z,24.45
2018-05-16T09:04:11.375Z,24.50
2018-05-16T09:05:11.284Z,24.47
2018-05-16T09:06:11.193Z,24.65
2018-05-16T09:07:11.113Z,24.69
2018-05-16T09:08:11.024Z,25.04
2018-05-16T09:09:10.933Z,25.41
2018-05-16T09:10:10.853Z,25.66
2018-05-16T09:11:10.764Z,25.87
2018-05-16T09:12:10.673Z,25.38
2018-05-16T09:13:10.593Z,24.78
2018-05-16T09:14:10.503Z,24.69
2018-05-16T09:15:10.425Z,23.96
2018-05-16T09:16:10.336Z,24.53
2018-05-16T09:17:10.328Z,24.99
2018-05-16T09:18:10.166Z,25.14
2018-05-16T09:19:10.075Z,24.50
2018-05-16T09:20:09.995Z,23.78
2018-05-16T09:21:09.906Z,23.59
2018-05-16T09:22:09.816Z,23.50
2018-05-16T09:23:09.737Z,23.43
2018-05-16T09:24:09.646Z,23.77
2018-05-16T09:25:09.593Z,23.40
2018-05-16T09:26:09.476Z,23.05
2018-05-16T09:27:09.385Z,23.21
2018-05-16T09:28:09.306Z,23.31
2018-05-16T09:29:09.230Z,23.59
2018-05-16T09:30:09.126Z,24.08
2018-05-16T09:31:09.048Z,24.96
2018-05-16T09:32:08.958Z,25.85
2018-05-16T09:33:08.880Z,26.41
2018-05-16T09:34:08.788Z,26.21
2018-05-16T09:35:08.722Z,26.23
2018-05-16T09:36:08.630Z,25.87
2018-05-16T09:37:08.529Z,25.41
2018-05-16T09:38:08.436Z,25.65
2018-05-16T09:39:08.357Z,25.53
2018-05-16T09:40:08.268Z,25.47
2018-05-16T09:41:08.189Z,25.40
2018-05-16T09:42:08.097Z,25.60
2018-05-16T09:43:08.007Z,25.85
2018-05-16T09:44:07.930Z,26.21
2018-05-16T09:45:07.838Z,26.59
2018-05-16T09:46:07.759Z,26.74
2018-05-16T09:47:07.671Z,26.84
2018-05-16T09:48:07.598Z,26.71
2018-05-16T09:49:07.501Z,26.56
2018-05-16T09:50:07.413Z,26.36
2018-05-16T09:51:07.331Z,25.66
2018-05-16T09:52:07.240Z,25.38
2018-05-16T09:53:07.161Z,24.80
2018-05-16T09:54:07.083Z,24.36
2018-05-16T09:55:06.993Z,24.14
2018-05-16T09:56:06.901Z,23.87
2018-05-16T09:57:06.824Z,24.02
2018-05-16T09:58:06.736Z,24.17
2018-05-16T09:59:06.641Z,24.39
2018-05-16T10:00:06.563Z,24.43
2018-05-16T10:01:06.475Z,24.51
2018-05-16T10:02:06.381Z,24.35
2018-05-16T10:03:06.315Z,24.03
2018-05-16T10:04:06.213Z,24.26
2018-05-16T10:05:06.123Z,24.16
2018-05-16T10:06:06.044Z,23.96
2018-05-16T10:07:05.953Z,24.35
2018-05-16T10:08:05.877Z,24.47
2018-05-16T10:09:05.784Z,24.61
2018-05-16T10:10:05.695Z,24.76
2018-05-16T10:11:05.602Z,24.16
2018-05-16T10:12:05.525Z,24.03
2018-05-16T10:13:05.434Z,23.98
2018-05-16T10:14:05.342Z,24.30
2018-05-16T10:15:05.290Z,24.54
2018-05-16T10:16:05.173Z,24.84
2018-05-16T10:17:05.141Z,25.18
2018-05-16T10:18:05.003Z,25.21
2018-05-16T10:19:04.914Z,25.10
2018-05-16T10:20:04.823Z,25.01
2018-05-16T10:21:04.747Z,24.65
2018-05-16T10:22:04.904Z,24.78
2018-05-16T10:23:04.562Z,24.70
2018-05-16T10:24:04.483Z,24.61
2018-05-16T10:25:04.394Z,24.76
2018-05-16T10:26:04.304Z,24.76
2018-05-16T10:27:04.216Z,24.50
2018-05-16T10:28:04.133Z,23.69
2018-05-16T10:29:04.042Z,23.74
2018-05-16T10:30:03.953Z,23.65
2018-05-16T10:31:03.873Z,23.69
2018-05-16T10:32:03.782Z,23.76
2018-05-16T10:33:03.696Z,24.03
2018-05-16T10:34:03.602Z,24.84
2018-05-16T10:35:03.527Z,25.43
2018-05-16T10:36:03.433Z,25.36
2018-05-16T10:37:03.340Z,25.68
2018-05-16T10:38:03.261Z,26.22
2018-05-16T10:39:03.172Z,26.77
2018-05-16T10:40:03.081Z,26.41
2018-05-16T10:41:03.003Z,26.88
2018-05-16T10:42:02.995Z,26.37
2018-05-16T10:43:02.821Z,25.84
2018-05-16T10:44:02.742Z,25.62
2018-05-16T10:45:02.653Z,25.65
2018-05-16T10:46:02.574Z,24.99
2018-05-16T10:47:02.482Z,24.45
2018-05-16T10:48:02.392Z,24.02
2018-05-16T10:49:02.314Z,25.17
2018-05-16T10:50:02.225Z,25.23
2018-05-16T10:51:02.144Z,25.62
2018-05-16T10:52:02.064Z,25.28
2018-05-16T10:53:01.964Z,24.98
2018-05-16T10:54:01.888Z,25.32
2018-05-16T10:55:01.798Z,24.92
2018-05-16T10:56:01.718Z,24.84
2018-05-16T10:57:01.625Z,24.66
2018-05-16T10:58:01.534Z,24.61
2018-05-16T10:59:01.456Z,25.14
2018-05-16T11:00:01.368Z,26.02
2018-05-16T11:01:01.286Z,25.65
2018-05-16T11:02:01.202Z,25.47
2018-05-16T11:03:01.106Z,25.22
2018-05-16T11:04:01.026Z,25.28
2018-05-16T11:05:00.937Z,25.51
2018-05-16T11:06:00.845Z,26.51
2018-05-16T11:07:00.766Z,27.05
2018-05-16T11:08:00.675Z,26.90
2018-05-16T11:09:00.643Z,26.81
2018-05-16T11:10:00.506Z,26.26
2018-05-16T11:11:00.416Z,25.88
2018-05-16T11:12:00.343Z,25.48
2018-05-16T11:13:00.260Z,25.23
2018-05-16T11:14:00.156Z,24.89
2018-05-16T11:15:00.078Z,24.80
2018-05-16T11:15:59.990Z,26.00
2018-05-16T11:16:59.908Z,26.45
2018-05-16T11:17:59.817Z,27.21
2018-05-16T11:18:59.727Z,27.83
2018-05-16T11:19:59.648Z,28.32
2018-05-16T11:20:59.564Z,28.57
2018-05-16T11:21:59.486Z,28.26
2018-05-16T11:22:59.388Z,27.83
2018-05-16T11:23:59.311Z,27.08
2018-05-16T11:24:59.223Z,26.53
2018-05-16T11:25:59.145Z,25.80
2018-05-16T11:26:59.050Z,25.48
2018-05-16T11:27:58.971Z,25.23
2018-05-16T11:28:58.886Z,24.86
2018-05-16T11:29:58.804Z,24.48
2018-05-16T11:30:58.712Z,24.39
2018-05-16T11:31:58.633Z,23.93
2018-05-16T11:32:58.543Z,24.16
2018-05-16T11:33:58.451Z,24.26
2018-05-16T11:34:58.373Z,24.40
2018-05-16T11:35:58.284Z,24.55
2018-05-16T11:36:58.207Z,24.68
2018-05-16T11:37:58.114Z,24.76
2018-05-16T11:38:58.025Z,24.95
2018-05-16T11:39:57.945Z,24.76
2018-05-16T11:40:57.853Z,24.80
2018-05-16T11:41:57.764Z,24.50
2018-05-16T11:42:57.685Z,24.23
2018-05-16T11:43:57.596Z,24.32
2018-05-16T11:44:57.503Z,23.80
2018-05-16T11:45:57.426Z,24.02
2018-05-16T11:46:57.333Z,24.24
2018-05-16T11:47:57.247Z,24.11
2018-05-16T11:48:57.202Z,24.24
2018-05-16T11:49:57.086Z,24.43
2018-05-16T11:50:56.983Z,24.54
2018-05-16T11:51:56.893Z,24.63
2018-05-16T11:52:56.813Z,24.81
2018-05-16T11:53:56.724Z,25.23
2018-05-16T11:54:56.632Z,25.60
2018-05-16T11:55:56.542Z,26.13
2018-05-16T11:56:56.451Z,26.48
2018-05-16T11:57:56.373Z,26.07
2018-05-16T11:58:56.282Z,25.50
2018-05-16T11:59:56.190Z,25.41
2018-05-16T12:00:56.101Z,25.77
2018-05-16T12:01:56.021Z,25.96
2018-05-16T12:02:55.966Z,26.10
2018-05-16T12:03:55.840Z,26.23
2018-05-16T12:04:55.750Z,26.22
2018-05-16T12:05:55.671Z,26.09
2018-05-16T12:06:55.581Z,25.91
2018-05-16T12:07:55.489Z,25.28
2018-05-16T12:08:55.410Z,25.25
2018-05-16T12:09:55.363Z,25.26
2018-05-16T12:10:55.228Z,24.74
2018-05-16T12:11:55.150Z,24.85
2018-05-16T12:12:55.061Z,24.89
2018-05-16T12:13:54.969Z,24.85
2018-05-16T12:14:54.905Z,24.60
2018-05-16T12:15:54.800Z,24.73
2018-05-16T12:16:54.715Z,24.86
2018-05-16T12:17:54.620Z,24.85
2018-05-16T12:18:54.548Z,25.04
2018-05-16T12:19:54.448Z,25.18
2018-05-16T12:20:54.371Z,25.04
2018-05-16T12:21:54.280Z,24.92
2018-05-16T12:22:54.189Z,24.73
2018-05-16T12:23:54.099Z,24.73
2018-05-16T12:24:54.020Z,24.70
2018-05-16T12:25:53.929Z,24.76
2018-05-16T12:26:53.842Z,24.74
2018-05-16T12:27:53.762Z,24.76
2018-05-16T12:28:53.722Z,24.73
2018-05-16T12:29:53.579Z,24.70
2018-05-16T12:30:53.488Z,24.78
2018-05-16T12:31:53.410Z,24.88
2018-05-16T12:32:53.327Z,24.84
2018-05-16T12:33:53.228Z,25.10
2018-05-16T12:34:53.138Z,25.38
2018-05-16T12:35:53.061Z,25.46
2018-05-16T12:36:52.970Z,25.43
2018-05-16T12:37:52.877Z,25.21
2018-05-16T12:38:52.786Z,25.48
2018-05-16T12:39:52.708Z,25.50
2018-05-16T12:40:52.617Z,25.55
2018-05-16T12:41:52.528Z,25.51
2018-05-16T12:42:52.435Z,25.41
2018-05-16T12:43:52.359Z,25.11
2018-05-16T12:44:52.267Z,25.03
2018-05-16T12:45:52.175Z,24.88
2018-05-16T12:46:52.084Z,24.70
2018-05-16T12:47:52.006Z,25.07
2018-05-16T12:48:51.916Z,25.07
2018-05-16T12:49:51.824Z,24.80
2018-05-16T12:50:51.735Z,24.78